Terminal Aerodrome Forecast
Issued by NWS Shreveport, LA

Home | Current Version | Previous Version | Text Only | Print | Product List | Glossary On
Versions: 1 2 3 4 5 6 7 8 9 10 11 12 13 14 15
575
FTUS44 KSHV 101720
TAFTXK
TAF
KTXK 101720Z 1018/1118 23006KT P6SM SKC
     FM102000 22010KT P6SM SKC
     FM110000 20006KT P6SM SKC
     FM110300 21009KT P6SM SKC
     FM111500 26007KT P6SM SCT300=

USA.gov is the U.S. government's official web portal to all federal, state and local government web resources and services.